sensor_id;sensor_type;location;lat;lon;timestamp;temperature;humidity
28087;DHT22;15392;48.912;8.380;2023-12-14T00:02:38;13.20;59.90
28087;DHT22;15392;48.912;8.380;2023-12-14T00:05:24;13.20;59.90
28087;DHT22;15392;48.912;8.380;2023-12-14T00:08:10;13.20;59.90
28087;DHT22;15392;48.912;8.380;2023-12-14T00:10:56;13.20;60.00
28087;DHT22;15392;48.912;8.380;2023-12-14T00:13:42;13.10;59.90
28087;DHT22;15392;48.912;8.380;2023-12-14T00:16:28;13.10;60.00
28087;DHT22;15392;48.912;8.380;2023-12-14T00:19:14;13.10;60.00
28087;DHT22;15392;48.912;8.380;2023-12-14T00:22:00;13.10;60.10
28087;DHT22;15392;48.912;8.380;2023-12-14T00:24:47;13.10;60.10
28087;DHT22;15392;48.912;8.380;2023-12-14T00:27:33;13.10;60.20
28087;DHT22;15392;48.912;8.380;2023-12-14T00:30:22;13.10;60.20
28087;DHT22;15392;48.912;8.380;2023-12-14T00:33:08;13.10;60.30
28087;DHT22;15392;48.912;8.380;2023-12-14T00:35:54;13.10;60.40
28087;DHT22;15392;48.912;8.380;2023-12-14T00:38:40;13.10;60.30
28087;DHT22;15392;48.912;8.380;2023-12-14T00:41:26;13.10;60.30
28087;DHT22;15392;48.912;8.380;2023-12-14T00:44:12;13.10;60.30
28087;DHT22;15392;48.912;8.380;2023-12-14T00:46:58;13.10;60.40
28087;DHT22;15392;48.912;8.380;2023-12-14T00:49:45;13.10;60.40
28087;DHT22;15392;48.912;8.380;2023-12-14T00:52:31;13.10;60.40
28087;DHT22;15392;48.912;8.380;2023-12-14T00:55:17;13.00;60.40
28087;DHT22;15392;48.912;8.380;2023-12-14T00:58:06;13.10;60.40
28087;DHT22;15392;48.912;8.380;2023-12-14T01:00:53;13.10;60.40
28087;DHT22;15392;48.912;8.380;2023-12-14T01:03:40;13.10;60.50
28087;DHT22;15392;48.912;8.380;2023-12-14T01:06:26;13.10;60.50
28087;DHT22;15392;48.912;8.380;2023-12-14T01:09:12;13.10;60.50
28087;DHT22;15392;48.912;8.380;2023-12-14T01:11:58;13.10;60.50
28087;DHT22;15392;48.912;8.380;2023-12-14T01:14:44;13.10;60.40
28087;DHT22;15392;48.912;8.380;2023-12-14T01:17:30;13.10;60.40
28087;DHT22;15392;48.912;8.380;2023-12-14T01:20:16;13.10;60.40
28087;DHT22;15392;48.912;8.380;2023-12-14T01:23:02;13.10;60.50
28087;DHT22;15392;48.912;8.380;2023-12-14T01:25:48;13.20;60.40
28087;DHT22;15392;48.912;8.380;2023-12-14T01:28:34;13.20;60.40
28087;DHT22;15392;48.912;8.380;2023-12-14T01:31:20;13.10;60.30
28087;DHT22;15392;48.912;8.380;2023-12-14T01:34:08;13.20;60.30
28087;DHT22;15392;48.912;8.380;2023-12-14T01:36:57;13.20;60.30
28087;DHT22;15392;48.912;8.380;2023-12-14T01:39:43;13.20;60.30
28087;DHT22;15392;48.912;8.380;2023-12-14T01:42:29;13.20;60.30
28087;DHT22;15392;48.912;8.380;2023-12-14T01:45:15;13.20;60.30
28087;DHT22;15392;48.912;8.380;2023-12-14T01:48:02;13.20;60.20
28087;DHT22;15392;48.912;8.380;2023-12-14T01:50:48;13.20;60.10
28087;DHT22;15392;48.912;8.380;2023-12-14T01:53:34;13.20;60.10
28087;DHT22;15392;48.912;8.380;2023-12-14T01:56:20;13.20;60.10
28087;DHT22;15392;48.912;8.380;2023-12-14T01:59:06;13.20;60.00
28087;DHT22;15392;48.912;8.380;2023-12-14T02:01:54;13.20;60.10
28087;DHT22;15392;48.912;8.380;2023-12-14T02:04:42;13.20;60.00
28087;DHT22;15392;48.912;8.380;2023-12-14T02:07:29;13.20;60.00
28087;DHT22;15392;48.912;8.380;2023-12-14T02:10:15;13.20;60.10
28087;DHT22;15392;48.912;8.380;2023-12-14T02:13:02;13.20;60.10
28087;DHT22;15392;48.912;8.380;2023-12-14T02:15:51;13.20;60.10
28087;DHT22;15392;48.912;8.380;2023-12-14T02:18:39;13.20;60.10
28087;DHT22;15392;48.912;8.380;2023-12-14T02:21:25;13.20;60.10
28087;DHT22;15392;48.912;8.380;2023-12-14T02:24:11;13.20;60.20
28087;DHT22;15392;48.912;8.380;2023-12-14T02:26:57;13.20;60.20
28087;DHT22;15392;48.912;8.380;2023-12-14T02:29:45;13.20;60.10
28087;DHT22;15392;48.912;8.380;2023-12-14T02:32:31;13.20;60.20
28087;DHT22;15392;48.912;8.380;2023-12-14T02:35:17;13.20;60.10
28087;DHT22;15392;48.912;8.380;2023-12-14T02:38:04;13.20;60.20
28087;DHT22;15392;48.912;8.380;2023-12-14T02:40:50;13.20;60.20
28087;DHT22;15392;48.912;8.380;2023-12-14T02:43:38;13.20;60.20
28087;DHT22;15392;48.912;8.380;2023-12-14T02:46:26;13.10;60.10
28087;DHT22;15392;48.912;8.380;2023-12-14T02:49:12;13.10;60.20
28087;DHT22;15392;48.912;8.380;2023-12-14T02:51:58;13.20;60.20
28087;DHT22;15392;48.912;8.380;2023-12-14T02:54:44;13.20;60.40
28087;DHT22;15392;48.912;8.380;2023-12-14T02:57:30;13.20;60.50
28087;DHT22;15392;48.912;8.380;2023-12-14T03:00:16;13.20;60.50
28087;DHT22;15392;48.912;8.380;2023-12-14T03:03:02;13.10;60.40
28087;DHT22;15392;48.912;8.380;2023-12-14T03:05:48;13.20;60.50
28087;DHT22;15392;48.912;8.380;2023-12-14T03:08:35;13.10;60.50
28087;DHT22;15392;48.912;8.380;2023-12-14T03:11:22;13.20;60.70
28087;DHT22;15392;48.912;8.380;2023-12-14T03:14:11;13.10;60.60
28087;DHT22;15392;48.912;8.380;2023-12-14T03:16:57;13.10;60.60
28087;DHT22;15392;48.912;8.380;2023-12-14T03:19:43;13.20;60.80
28087;DHT22;15392;48.912;8.380;2023-12-14T03:22:29;13.20;60.90
28087;DHT22;15392;48.912;8.380;2023-12-14T03:25:15;13.10;61.00
28087;DHT22;15392;48.912;8.380;2023-12-14T03:28:01;13.10;61.00
28087;DHT22;15392;48.912;8.380;2023-12-14T03:30:47;13.10;61.10
28087;DHT22;15392;48.912;8.380;2023-12-14T03:33:34;13.10;61.10
28087;DHT22;15392;48.912;8.380;2023-12-14T03:36:20;13.10;61.20
28087;DHT22;15392;48.912;8.380;2023-12-14T03:39:31;13.10;61.20
28087;DHT22;15392;48.912;8.380;2023-12-14T03:42:17;13.10;61.30
28087;DHT22;15392;48.912;8.380;2023-12-14T03:45:03;13.10;61.30
28087;DHT22;15392;48.912;8.380;2023-12-14T03:47:50;13.10;61.30
28087;DHT22;15392;48.912;8.380;2023-12-14T03:50:36;13.10;61.20
28087;DHT22;15392;48.912;8.380;2023-12-14T03:53:22;13.10;61.20
28087;DHT22;15392;48.912;8.380;2023-12-14T03:56:08;13.10;61.20
28087;DHT22;15392;48.912;8.380;2023-12-14T03:58:54;13.20;61.20
28087;DHT22;15392;48.912;8.380;2023-12-14T04:01:42;13.20;61.10
28087;DHT22;15392;48.912;8.380;2023-12-14T04:04:28;13.10;61.10
28087;DHT22;15392;48.912;8.380;2023-12-14T04:07:14;13.20;61.20
28087;DHT22;15392;48.912;8.380;2023-12-14T04:10:00;13.20;61.20
28087;DHT22;15392;48.912;8.380;2023-12-14T04:12:46;13.20;61.10
28087;DHT22;15392;48.912;8.380;2023-12-14T04:15:32;13.20;61.10
28087;DHT22;15392;48.912;8.380;2023-12-14T04:18:18;13.20;61.10
28087;DHT22;15392;48.912;8.380;2023-12-14T04:21:04;13.20;61.10
28087;DHT22;15392;48.912;8.380;2023-12-14T04:23:50;13.20;61.10
28087;DHT22;15392;48.912;8.380;2023-12-14T04:26:36;13.30;61.10
28087;DHT22;15392;48.912;8.380;2023-12-14T04:29:22;13.30;61.00
28087;DHT22;15392;48.912;8.380;2023-12-14T04:32:09;13.30;61.00
28087;DHT22;15392;48.912;8.380;2023-12-14T04:34:55;13.20;61.00
28087;DHT22;15392;48.912;8.380;2023-12-14T04:37:41;13.30;61.00
28087;DHT22;15392;48.912;8.380;2023-12-14T04:40:27;13.30;61.00
28087;DHT22;15392;48.912;8.380;2023-12-14T04:43:13;13.30;61.00
28087;DHT22;15392;48.912;8.380;2023-12-14T04:45:59;13.30;60.90
28087;DHT22;15392;48.912;8.380;2023-12-14T04:48:45;13.30;61.00
28087;DHT22;15392;48.912;8.380;2023-12-14T04:51:31;13.30;61.00
28087;DHT22;15392;48.912;8.380;2023-12-14T04:54:18;13.30;61.00
28087;DHT22;15392;48.912;8.380;2023-12-14T04:57:04;13.30;61.00
28087;DHT22;15392;48.912;8.380;2023-12-14T04:59:50;13.30;61.00
28087;DHT22;15392;48.912;8.380;2023-12-14T05:02:36;13.20;61.80
28087;DHT22;15392;48.912;8.380;2023-12-14T05:05:22;13.30;61.00
28087;DHT22;15392;48.912;8.380;2023-12-14T05:08:08;13.30;61.10
28087;DHT22;15392;48.912;8.380;2023-12-14T05:10:54;13.30;61.00
28087;DHT22;15392;48.912;8.380;2023-12-14T05:13:40;13.30;61.00
28087;DHT22;15392;48.912;8.380;2023-12-14T05:16:26;13.30;61.10
28087;DHT22;15392;48.912;8.380;2023-12-14T05:19:13;13.30;61.00
28087;DHT22;15392;48.912;8.380;2023-12-14T05:21:59;13.30;61.00
28087;DHT22;15392;48.912;8.380;2023-12-14T05:24:46;13.30;61.00
28087;DHT22;15392;48.912;8.380;2023-12-14T05:27:32;13.30;61.00
28087;DHT22;15392;48.912;8.380;2023-12-14T05:30:22;13.30;61.00
28087;DHT22;15392;48.912;8.380;2023-12-14T05:33:08;13.20;61.00
28087;DHT22;15392;48.912;8.380;2023-12-14T05:35:54;13.20;61.00
28087;DHT22;15392;48.912;8.380;2023-12-14T05:38:41;13.30;61.10
28087;DHT22;15392;48.912;8.380;2023-12-14T05:41:28;13.30;61.10
28087;DHT22;15392;48.912;8.380;2023-12-14T05:44:15;13.30;61.10
28087;DHT22;15392;48.912;8.380;2023-12-14T05:47:01;13.30;61.10
28087;DHT22;15392;48.912;8.380;2023-12-14T05:49:47;13.20;61.60
28087;DHT22;15392;48.912;8.380;2023-12-14T05:52:34;13.30;61.10
28087;DHT22;15392;48.912;8.380;2023-12-14T05:55:20;13.30;61.10
28087;DHT22;15392;48.912;8.380;2023-12-14T05:58:07;13.20;61.10
28087;DHT22;15392;48.912;8.380;2023-12-14T06:00:53;13.20;61.20
28087;DHT22;15392;48.912;8.380;2023-12-14T06:03:39;13.30;61.20
28087;DHT22;15392;48.912;8.380;2023-12-14T06:06:25;13.30;61.20
28087;DHT22;15392;48.912;8.380;2023-12-14T06:09:11;13.20;61.30
28087;DHT22;15392;48.912;8.380;2023-12-14T06:11:57;13.30;61.20
28087;DHT22;15392;48.912;8.380;2023-12-14T06:14:43;13.20;61.10
28087;DHT22;15392;48.912;8.380;2023-12-14T06:17:30;13.30;61.30
28087;DHT22;15392;48.912;8.380;2023-12-14T06:20:17;13.30;61.20
28087;DHT22;15392;48.912;8.380;2023-12-14T06:23:03;13.30;61.20
28087;DHT22;15392;48.912;8.380;2023-12-14T06:25:49;13.20;61.20
28087;DHT22;15392;48.912;8.380;2023-12-14T06:28:35;13.30;61.30
28087;DHT22;15392;48.912;8.380;2023-12-14T06:31:21;13.30;61.30
28087;DHT22;15392;48.912;8.380;2023-12-14T06:34:07;13.20;61.20
28087;DHT22;15392;48.912;8.380;2023-12-14T06:36:53;13.20;61.20
28087;DHT22;15392;48.912;8.380;2023-12-14T06:39:42;13.20;61.20
28087;DHT22;15392;48.912;8.380;2023-12-14T06:42:29;13.20;61.30
28087;DHT22;15392;48.912;8.380;2023-12-14T06:45:16;13.20;61.20
28087;DHT22;15392;48.912;8.380;2023-12-14T06:48:02;13.20;61.20
28087;DHT22;15392;48.912;8.380;2023-12-14T06:50:49;13.20;61.20
28087;DHT22;15392;48.912;8.380;2023-12-14T06:53:35;13.20;61.20
28087;DHT22;15392;48.912;8.380;2023-12-14T06:56:23;13.20;61.20
28087;DHT22;15392;48.912;8.380;2023-12-14T06:59:09;13.20;61.20
28087;DHT22;15392;48.912;8.380;2023-12-14T07:01:55;13.20;61.30
28087;DHT22;15392;48.912;8.380;2023-12-14T07:04:41;13.20;61.20
28087;DHT22;15392;48.912;8.380;2023-12-14T07:07:27;13.20;61.20
28087;DHT22;15392;48.912;8.380;2023-12-14T07:10:13;13.20;61.30
28087;DHT22;15392;48.912;8.380;2023-12-14T07:13:00;13.20;61.20
28087;DHT22;15392;48.912;8.380;2023-12-14T07:15:46;13.20;61.20
28087;DHT22;15392;48.912;8.380;2023-12-14T07:18:32;13.20;61.20
28087;DHT22;15392;48.912;8.380;2023-12-14T07:21:18;13.20;61.20
28087;DHT22;15392;48.912;8.380;2023-12-14T07:24:04;13.20;61.30
28087;DHT22;15392;48.912;8.380;2023-12-14T07:26:50;13.20;61.20
28087;DHT22;15392;48.912;8.380;2023-12-14T07:29:36;13.20;61.30
28087;DHT22;15392;48.912;8.380;2023-12-14T07:32:22;13.20;61.30
28087;DHT22;15392;48.912;8.380;2023-12-14T07:35:08;13.20;61.20
28087;DHT22;15392;48.912;8.380;2023-12-14T07:37:56;13.30;61.20
28087;DHT22;15392;48.912;8.380;2023-12-14T07:40:42;13.20;61.20
28087;DHT22;15392;48.912;8.380;2023-12-14T07:43:28;13.30;61.20
28087;DHT22;15392;48.912;8.380;2023-12-14T07:46:14;13.30;61.30
28087;DHT22;15392;48.912;8.380;2023-12-14T07:49:00;13.20;61.40
28087;DHT22;15392;48.912;8.380;2023-12-14T07:51:46;13.20;61.20
28087;DHT22;15392;48.912;8.380;2023-12-14T07:54:32;13.30;61.20
28087;DHT22;15392;48.912;8.380;2023-12-14T07:57:18;13.20;61.10
28087;DHT22;15392;48.912;8.380;2023-12-14T08:00:05;13.30;61.20
28087;DHT22;15392;48.912;8.380;2023-12-14T08:02:54;13.20;61.20
28087;DHT22;15392;48.912;8.380;2023-12-14T08:05:40;13.30;61.30
28087;DHT22;15392;48.912;8.380;2023-12-14T08:08:26;13.30;61.20
28087;DHT22;15392;48.912;8.380;2023-12-14T08:11:12;13.20;61.20
28087;DHT22;15392;48.912;8.380;2023-12-14T08:13:58;13.30;61.20
28087;DHT22;15392;48.912;8.380;2023-12-14T08:16:44;13.30;61.10
28087;DHT22;15392;48.912;8.380;2023-12-14T08:19:30;13.30;61.10
28087;DHT22;15392;48.912;8.380;2023-12-14T08:22:16;13.30;61.20
28087;DHT22;15392;48.912;8.380;2023-12-14T08:25:02;13.30;61.20
28087;DHT22;15392;48.912;8.380;2023-12-14T08:27:49;13.30;61.20
28087;DHT22;15392;48.912;8.380;2023-12-14T08:30:36;13.30;61.30
28087;DHT22;15392;48.912;8.380;2023-12-14T08:33:24;13.30;61.30
28087;DHT22;15392;48.912;8.380;2023-12-14T08:36:10;13.30;61.20
28087;DHT22;15392;48.912;8.380;2023-12-14T08:39:01;13.30;61.10
28087;DHT22;15392;48.912;8.380;2023-12-14T08:41:47;13.30;61.20
28087;DHT22;15392;48.912;8.380;2023-12-14T08:44:33;13.30;61.20
28087;DHT22;15392;48.912;8.380;2023-12-14T08:47:20;13.30;61.20
28087;DHT22;15392;48.912;8.380;2023-12-14T08:50:06;13.30;61.10
28087;DHT22;15392;48.912;8.380;2023-12-14T08:52:54;13.40;61.30
28087;DHT22;15392;48.912;8.380;2023-12-14T08:55:40;13.30;61.30
28087;DHT22;15392;48.912;8.380;2023-12-14T08:58:26;13.40;61.30
28087;DHT22;15392;48.912;8.380;2023-12-14T09:01:17;13.40;61.40
28087;DHT22;15392;48.912;8.380;2023-12-14T09:04:05;13.40;61.50
28087;DHT22;15392;48.912;8.380;2023-12-14T09:06:52;13.40;61.40
28087;DHT22;15392;48.912;8.380;2023-12-14T09:09:38;13.40;61.30
28087;DHT22;15392;48.912;8.380;2023-12-14T09:12:24;13.50;61.30
28087;DHT22;15392;48.912;8.380;2023-12-14T09:15:10;13.50;61.30
28087;DHT22;15392;48.912;8.380;2023-12-14T09:17:56;13.40;61.20
28087;DHT22;15392;48.912;8.380;2023-12-14T09:20:42;13.50;61.40
28087;DHT22;15392;48.912;8.380;2023-12-14T09:23:28;13.50;61.30
28087;DHT22;15392;48.912;8.380;2023-12-14T09:26:14;13.50;61.30
28087;DHT22;15392;48.912;8.380;2023-12-14T09:29:00;13.50;61.30
28087;DHT22;15392;48.912;8.380;2023-12-14T09:31:48;13.50;61.60
28087;DHT22;15392;48.912;8.380;2023-12-14T09:34:34;13.60;61.50
28087;DHT22;15392;48.912;8.380;2023-12-14T09:37:20;13.50;61.50
28087;DHT22;15392;48.912;8.380;2023-12-14T09:40:08;13.60;61.50
28087;DHT22;15392;48.912;8.380;2023-12-14T09:42:55;13.60;61.30
28087;DHT22;15392;48.912;8.380;2023-12-14T09:45:42;13.60;61.40
28087;DHT22;15392;48.912;8.380;2023-12-14T09:48:31;13.60;61.30
28087;DHT22;15392;48.912;8.380;2023-12-14T09:51:17;13.60;61.30
28087;DHT22;15392;48.912;8.380;2023-12-14T09:54:04;13.60;61.20
28087;DHT22;15392;48.912;8.380;2023-12-14T09:56:50;13.70;61.20
28087;DHT22;15392;48.912;8.380;2023-12-14T09:59:38;13.70;61.20
28087;DHT22;15392;48.912;8.380;2023-12-14T10:02:26;13.70;61.10
28087;DHT22;15392;48.912;8.380;2023-12-14T10:05:13;13.70;61.10
28087;DHT22;15392;48.912;8.380;2023-12-14T10:07:59;13.70;61.10
28087;DHT22;15392;48.912;8.380;2023-12-14T10:10:48;13.70;61.00
28087;DHT22;15392;48.912;8.380;2023-12-14T10:13:38;13.80;61.10
28087;DHT22;15392;48.912;8.380;2023-12-14T10:16:33;13.70;61.00
28087;DHT22;15392;48.912;8.380;2023-12-14T10:19:20;13.80;61.20
28087;DHT22;15392;48.912;8.380;2023-12-14T10:22:06;13.70;61.00
28087;DHT22;15392;48.912;8.380;2023-12-14T10:24:54;13.80;61.10
28087;DHT22;15392;48.912;8.380;2023-12-14T10:27:40;13.80;61.20
28087;DHT22;15392;48.912;8.380;2023-12-14T10:30:27;13.80;61.30
28087;DHT22;15392;48.912;8.380;2023-12-14T10:33:14;13.90;61.40
28087;DHT22;15392;48.912;8.380;2023-12-14T10:36:02;13.90;61.40
28087;DHT22;15392;48.912;8.380;2023-12-14T10:38:52;13.90;61.30
28087;DHT22;15392;48.912;8.380;2023-12-14T10:41:39;13.90;61.30
28087;DHT22;15392;48.912;8.380;2023-12-14T10:44:26;13.90;61.30
28087;DHT22;15392;48.912;8.380;2023-12-14T10:47:16;13.90;61.30
28087;DHT22;15392;48.912;8.380;2023-12-14T10:50:02;14.00;61.70
28087;DHT22;15392;48.912;8.380;2023-12-14T10:52:49;14.00;61.00
28087;DHT22;15392;48.912;8.380;2023-12-14T10:55:42;14.00;61.10
28087;DHT22;15392;48.912;8.380;2023-12-14T10:58:51;14.00;61.10
28087;DHT22;15392;48.912;8.380;2023-12-14T11:01:42;14.00;61.30
28087;DHT22;15392;48.912;8.380;2023-12-14T11:04:28;14.00;61.10
28087;DHT22;15392;48.912;8.380;2023-12-14T11:07:15;14.00;61.20
28087;DHT22;15392;48.912;8.380;2023-12-14T11:10:02;14.10;61.20
28087;DHT22;15392;48.912;8.380;2023-12-14T11:13:02;14.10;61.20
28087;DHT22;15392;48.912;8.380;2023-12-14T11:15:53;14.10;61.20
28087;DHT22;15392;48.912;8.380;2023-12-14T11:18:39;14.10;61.20
28087;DHT22;15392;48.912;8.380;2023-12-14T11:21:25;14.10;61.10
28087;DHT22;15392;48.912;8.380;2023-12-14T11:24:12;14.10;61.00
28087;DHT22;15392;48.912;8.380;2023-12-14T11:26:58;14.10;61.00
28087;DHT22;15392;48.912;8.380;2023-12-14T11:29:45;14.10;60.80
28087;DHT22;15392;48.912;8.380;2023-12-14T11:32:31;14.10;60.90
28087;DHT22;15392;48.912;8.380;2023-12-14T11:35:17;14.10;61.10
28087;DHT22;15392;48.912;8.380;2023-12-14T11:38:04;14.10;62.00
28087;DHT22;15392;48.912;8.380;2023-12-14T11:40:56;14.10;61.20
28087;DHT22;15392;48.912;8.380;2023-12-14T11:43:43;14.10;61.20
28087;DHT22;15392;48.912;8.380;2023-12-14T11:46:29;14.10;61.30
28087;DHT22;15392;48.912;8.380;2023-12-14T11:49:16;14.10;61.40
28087;DHT22;15392;48.912;8.380;2023-12-14T11:52:02;14.10;61.30
28087;DHT22;15392;48.912;8.380;2023-12-14T11:54:50;14.10;61.40
28087;DHT22;15392;48.912;8.380;2023-12-14T11:57:36;14.10;61.50
28087;DHT22;15392;48.912;8.380;2023-12-14T12:00:27;14.10;61.40
28087;DHT22;15392;48.912;8.380;2023-12-14T12:03:19;14.10;61.40
28087;DHT22;15392;48.912;8.380;2023-12-14T12:06:06;14.20;61.50
28087;DHT22;15392;48.912;8.380;2023-12-14T12:08:53;14.20;61.40
28087;DHT22;15392;48.912;8.380;2023-12-14T12:11:39;14.20;61.40
28087;DHT22;15392;48.912;8.380;2023-12-14T12:14:27;14.20;61.40
28087;DHT22;15392;48.912;8.380;2023-12-14T12:17:13;14.20;61.40
28087;DHT22;15392;48.912;8.380;2023-12-14T12:20:01;14.30;61.40
28087;DHT22;15392;48.912;8.380;2023-12-14T12:22:47;14.30;61.40
28087;DHT22;15392;48.912;8.380;2023-12-14T12:25:33;14.30;61.30
28087;DHT22;15392;48.912;8.380;2023-12-14T12:28:20;14.30;61.20
28087;DHT22;15392;48.912;8.380;2023-12-14T12:31:06;14.30;61.20
28087;DHT22;15392;48.912;8.380;2023-12-14T12:33:52;14.30;61.00
28087;DHT22;15392;48.912;8.380;2023-12-14T12:36:38;14.40;61.10
28087;DHT22;15392;48.912;8.380;2023-12-14T12:39:24;14.40;61.00
28087;DHT22;15392;48.912;8.380;2023-12-14T12:42:10;14.40;60.90
28087;DHT22;15392;48.912;8.380;2023-12-14T12:44:56;14.40;60.80
28087;DHT22;15392;48.912;8.380;2023-12-14T12:47:44;14.40;60.80
28087;DHT22;15392;48.912;8.380;2023-12-14T12:50:30;14.40;60.80
28087;DHT22;15392;48.912;8.380;2023-12-14T12:53:17;14.40;60.80
28087;DHT22;15392;48.912;8.380;2023-12-14T12:56:04;14.40;60.90
28087;DHT22;15392;48.912;8.380;2023-12-14T12:58:50;14.40;60.90
28087;DHT22;15392;48.912;8.380;2023-12-14T13:01:39;14.40;60.90
28087;DHT22;15392;48.912;8.380;2023-12-14T13:04:25;14.40;60.90
28087;DHT22;15392;48.912;8.380;2023-12-14T13:07:12;14.50;60.80
28087;DHT22;15392;48.912;8.380;2023-12-14T13:09:58;14.40;60.60
28087;DHT22;15392;48.912;8.380;2023-12-14T13:12:44;14.50;60.60
28087;DHT22;15392;48.912;8.380;2023-12-14T13:15:30;14.50;60.70
28087;DHT22;15392;48.912;8.380;2023-12-14T13:18:16;14.50;60.70
28087;DHT22;15392;48.912;8.380;2023-12-14T13:21:02;14.50;60.60
28087;DHT22;15392;48.912;8.380;2023-12-14T13:23:49;14.50;60.60
28087;DHT22;15392;48.912;8.380;2023-12-14T13:26:36;14.50;60.50
28087;DHT22;15392;48.912;8.380;2023-12-14T13:29:22;14.50;60.40
28087;DHT22;15392;48.912;8.380;2023-12-14T13:32:08;14.50;60.40
28087;DHT22;15392;48.912;8.380;2023-12-14T13:34:55;14.50;60.40
28087;DHT22;15392;48.912;8.380;2023-12-14T13:37:41;14.50;60.50
28087;DHT22;15392;48.912;8.380;2023-12-14T13:40:27;14.50;60.50
28087;DHT22;15392;48.912;8.380;2023-12-14T13:43:14;14.50;60.60
28087;DHT22;15392;48.912;8.380;2023-12-14T13:46:00;14.50;60.60
28087;DHT22;15392;48.912;8.380;2023-12-14T13:48:46;14.50;60.60
28087;DHT22;15392;48.912;8.380;2023-12-14T13:51:32;14.50;60.60
28087;DHT22;15392;48.912;8.380;2023-12-14T13:54:19;14.50;60.50
28087;DHT22;15392;48.912;8.380;2023-12-14T13:57:05;14.50;61.20
28087;DHT22;15392;48.912;8.380;2023-12-14T13:59:51;14.50;60.40
28087;DHT22;15392;48.912;8.380;2023-12-14T14:02:37;14.50;60.30
28087;DHT22;15392;48.912;8.380;2023-12-14T14:05:23;14.50;60.40
28087;DHT22;15392;48.912;8.380;2023-12-14T14:08:09;14.50;60.30
28087;DHT22;15392;48.912;8.380;2023-12-14T14:10:58;14.50;60.30
28087;DHT22;15392;48.912;8.380;2023-12-14T14:13:45;14.50;60.20
28087;DHT22;15392;48.912;8.380;2023-12-14T14:16:31;14.50;60.20
28087;DHT22;15392;48.912;8.380;2023-12-14T14:19:17;14.50;60.20
28087;DHT22;15392;48.912;8.380;2023-12-14T14:22:04;14.50;60.20
28087;DHT22;15392;48.912;8.380;2023-12-14T14:24:50;14.50;60.20
28087;DHT22;15392;48.912;8.380;2023-12-14T14:27:36;14.50;60.20
28087;DHT22;15392;48.912;8.380;2023-12-14T14:30:23;14.50;60.20
28087;DHT22;15392;48.912;8.380;2023-12-14T14:33:09;14.40;60.10
28087;DHT22;15392;48.912;8.380;2023-12-14T14:35:55;14.50;60.10
28087;DHT22;15392;48.912;8.380;2023-12-14T14:38:41;14.40;60.00
28087;DHT22;15392;48.912;8.380;2023-12-14T14:41:28;14.40;59.90
28087;DHT22;15392;48.912;8.380;2023-12-14T14:44:14;14.40;59.90
28087;DHT22;15392;48.912;8.380;2023-12-14T14:47:02;14.40;59.90
28087;DHT22;15392;48.912;8.380;2023-12-14T14:49:48;14.40;60.00
28087;DHT22;15392;48.912;8.380;2023-12-14T14:52:36;14.40;60.00
28087;DHT22;15392;48.912;8.380;2023-12-14T14:55:22;14.40;60.00
28087;DHT22;15392;48.912;8.380;2023-12-14T14:58:11;14.30;60.00
28087;DHT22;15392;48.912;8.380;2023-12-14T15:00:57;14.30;60.00
28087;DHT22;15392;48.912;8.380;2023-12-14T15:03:43;14.30;60.00
28087;DHT22;15392;48.912;8.380;2023-12-14T15:06:29;14.30;60.00
28087;DHT22;15392;48.912;8.380;2023-12-14T15:09:15;14.30;60.00
28087;DHT22;15392;48.912;8.380;2023-12-14T15:12:02;14.30;60.00
28087;DHT22;15392;48.912;8.380;2023-12-14T15:14:48;14.20;60.10
28087;DHT22;15392;48.912;8.380;2023-12-14T15:17:34;14.30;60.20
28087;DHT22;15392;48.912;8.380;2023-12-14T15:20:20;14.20;60.20
28087;DHT22;15392;48.912;8.380;2023-12-14T15:23:06;14.20;61.00
28087;DHT22;15392;48.912;8.380;2023-12-14T15:25:53;14.20;60.20
28087;DHT22;15392;48.912;8.380;2023-12-14T15:28:39;14.20;60.20
28087;DHT22;15392;48.912;8.380;2023-12-14T15:31:26;14.20;60.20
28087;DHT22;15392;48.912;8.380;2023-12-14T15:34:12;14.20;60.20
28087;DHT22;15392;48.912;8.380;2023-12-14T15:36:59;14.10;60.10
28087;DHT22;15392;48.912;8.380;2023-12-14T15:39:45;14.10;60.10
28087;DHT22;15392;48.912;8.380;2023-12-14T15:42:34;14.10;60.20
28087;DHT22;15392;48.912;8.380;2023-12-14T15:45:20;14.10;60.20
28087;DHT22;15392;48.912;8.380;2023-12-14T15:48:07;14.10;60.30
28087;DHT22;15392;48.912;8.380;2023-12-14T15:50:53;14.10;60.30
28087;DHT22;15392;48.912;8.380;2023-12-14T15:53:39;14.10;60.30
28087;DHT22;15392;48.912;8.380;2023-12-14T15:56:26;14.00;60.30
28087;DHT22;15392;48.912;8.380;2023-12-14T15:59:14;14.00;60.10
28087;DHT22;15392;48.912;8.380;2023-12-14T16:02:00;14.00;60.20
28087;DHT22;15392;48.912;8.380;2023-12-14T16:04:49;14.00;60.20
28087;DHT22;15392;48.912;8.380;2023-12-14T16:07:36;13.90;60.20
28087;DHT22;15392;48.912;8.380;2023-12-14T16:10:22;13.90;60.20
28087;DHT22;15392;48.912;8.380;2023-12-14T16:13:08;13.90;60.20
28087;DHT22;15392;48.912;8.380;2023-12-14T16:15:54;13.90;60.20
28087;DHT22;15392;48.912;8.380;2023-12-14T16:18:40;13.90;60.20
28087;DHT22;15392;48.912;8.380;2023-12-14T16:21:31;13.90;60.20
28087;DHT22;15392;48.912;8.380;2023-12-14T16:24:22;13.90;60.20
28087;DHT22;15392;48.912;8.380;2023-12-14T16:27:09;13.80;60.10
28087;DHT22;15392;48.912;8.380;2023-12-14T16:29:56;13.80;60.10
28087;DHT22;15392;48.912;8.380;2023-12-14T16:32:42;13.80;60.10
28087;DHT22;15392;48.912;8.380;2023-12-14T16:35:28;13.80;60.20
28087;DHT22;15392;48.912;8.380;2023-12-14T16:38:15;13.80;60.20
28087;DHT22;15392;48.912;8.380;2023-12-14T16:41:01;13.80;60.30
28087;DHT22;15392;48.912;8.380;2023-12-14T16:43:48;13.80;60.30
28087;DHT22;15392;48.912;8.380;2023-12-14T16:46:34;13.80;60.40
28087;DHT22;15392;48.912;8.380;2023-12-14T16:49:20;13.70;60.20
28087;DHT22;15392;48.912;8.380;2023-12-14T16:52:06;13.70;60.20
28087;DHT22;15392;48.912;8.380;2023-12-14T16:54:52;13.70;60.20
28087;DHT22;15392;48.912;8.380;2023-12-14T16:57:38;13.70;60.10
28087;DHT22;15392;48.912;8.380;2023-12-14T17:00:24;13.70;60.10
28087;DHT22;15392;48.912;8.380;2023-12-14T17:03:10;13.70;60.00
28087;DHT22;15392;48.912;8.380;2023-12-14T17:05:56;13.60;59.90
28087;DHT22;15392;48.912;8.380;2023-12-14T17:08:42;13.60;59.90
28087;DHT22;15392;48.912;8.380;2023-12-14T17:11:29;13.60;59.90
28087;DHT22;15392;48.912;8.380;2023-12-14T17:14:15;13.60;60.60
28087;DHT22;15392;48.912;8.380;2023-12-14T17:17:03;13.60;59.70
28087;DHT22;15392;48.912;8.380;2023-12-14T17:19:49;13.60;59.80
28087;DHT22;15392;48.912;8.380;2023-12-14T17:22:35;13.60;59.90
28087;DHT22;15392;48.912;8.380;2023-12-14T17:25:25;13.50;59.80
28087;DHT22;15392;48.912;8.380;2023-12-14T17:28:11;13.50;59.80
28087;DHT22;15392;48.912;8.380;2023-12-14T17:30:57;13.50;59.80
28087;DHT22;15392;48.912;8.380;2023-12-14T17:33:44;13.50;59.70